Thunder radar more information blitzortung!


Löydät sääaseman tiedot myös:

European Weather Network

Finland Weather Exchange

Weather Underground

AWEKAS



Weather Underground säähistoriasivu

Päivittäin yhteenveto Tammikuu 12, 2017 Yksiköt:  Molemmat    Englantilaiset   Metriset
« Edellinen Päivä
Seuraava Päivä »
Päivittäin Viikoittain Kuukausittain Vuosittain Mukautettu
  Korkea: Matala: Keskiarvo:
Lämpötila: TemperatureC °F /  -17.8 °C -2.9 °F /  -19.4 °C -2.1 °F /  -18.9 °C
Kastepiste: DewpointC °F /  -17.8 °C -5.7 °F /  -20.9 °C -4.2 °F /  -20.1 °C
Kosteus: Humidity % 77 % 84 %
Tuulen nopeus: WindSpeedKMH mph /  0 km/h - 0 mph /  0 km/h
Tuulenpuuska: WindSpeedGustKMH mph /  0 km/h - -
Tuuli:- - North
Ilmanpaine: PressurehPa in /  0 hPa 977.5 in /  33098.2 hPa -
Sade: 0.0 in /  0 mm    
Historical Graphs
 
 
Taulukkotiedot Tammikuu 12, 2017
Aika Lämpötila Kastepiste Ilmanpaine Tuuli Tuulen nopeus Tuulenpuuska Kosteus Sademäärä (tunneittain)
TemperatureC °F /  -17.8 °C DewpointC °F /  -17.8 °C PressurehPa in /  0 hPa Calm     Humidity % HourlyPrecipMM in /  0 mm
00:00 -1.7 °F /  -18.7 °C -5.2 °F /  -20.7 °C 984.3 in /  33328.4 hPa Calm     77 % 0.0 in /  0 mm
00:15 -1.8 °F /  -18.8 °C -5.2 °F /  -20.7 °C 984.0 in /  33318.2 hPa Calm     78 % 0.0 in /  0 mm
00:30 -1.9 °F /  -18.8 °C -5.2 °F /  -20.7 °C 984.0 in /  33318.2 hPa Calm     78 % 0.0 in /  0 mm
00:45 -2.0 °F /  -18.9 °C -5.2 °F /  -20.7 °C 984.0 in /  33318.2 hPa Calm     79 % 0.0 in /  0 mm
01:00 -2.1 °F /  -18.9 °C -5.2 °F /  -20.7 °C 983.6 in /  33304.7 hPa Calm     79 % 0.0 in /  0 mm
01:15 -2.1 °F /  -18.9 °C -5.4 °F /  -20.8 °C 983.6 in /  33304.7 hPa Calm     78 % 0.0 in /  0 mm
01:30 -2.1 °F /  -18.9 °C -5.6 °F /  -20.9 °C 983.0 in /  33284.4 hPa Calm     77 % 0.0 in /  0 mm
01:45 -2.1 °F /  -18.9 °C -5.6 °F /  -20.9 °C 982.6 in /  33270.8 hPa Calm     77 % 0.0 in /  0 mm
02:00 -2.2 °F /  -19 °C -5.5 °F /  -20.8 °C 982.3 in /  33260.7 hPa Calm     78 % 0.0 in /  0 mm
02:15 -2.3 °F /  -19.1 °C -5.6 °F /  -20.9 °C 982.3 in /  33260.7 hPa Calm     78 % 0.0 in /  0 mm
02:30 -2.3 °F /  -19.1 °C -5.6 °F /  -20.9 °C 981.9 in /  33247.1 hPa Calm     78 % 0.0 in /  0 mm
02:45 -2.3 °F /  -19.1 °C -5.6 °F /  -20.9 °C 981.9 in /  33247.1 hPa Calm     78 % 0.0 in /  0 mm
03:00 -2.4 °F /  -19.1 °C -5.7 °F /  -20.9 °C 981.9 in /  33247.1 hPa Calm     78 % 0.0 in /  0 mm
03:15 -2.3 °F /  -19.1 °C -5.5 °F /  -20.8 °C 981.3 in /  33226.8 hPa Calm     79 % 0.0 in /  0 mm
03:30 -2.3 °F /  -19.1 °C -5.6 °F /  -20.9 °C 981.3 in /  33226.8 hPa Calm     78 % 0.0 in /  0 mm
03:45 -2.3 °F /  -19.1 °C -5.4 °F /  -20.8 °C 980.9 in /  33213.3 hPa Calm     79 % 0.0 in /  0 mm
04:00 -2.3 °F /  -19.1 °C -5.2 °F /  -20.7 °C 980.6 in /  33203.1 hPa Calm     81 % 0.0 in /  0 mm
04:15 -2.6 °F /  -19.2 °C -4.7 °F /  -20.4 °C 980.6 in /  33203.1 hPa Calm     85 % 0.0 in /  0 mm
04:30 -2.8 °F /  -19.3 °C -4.5 °F /  -20.3 °C 980.2 in /  33189.6 hPa Calm     88 % 0.0 in /  0 mm
04:45 -2.9 °F /  -19.4 °C -4.4 °F /  -20.2 °C 980.2 in /  33189.6 hPa Calm     89 % 0.0 in /  0 mm
05:00 -2.9 °F /  -19.4 °C -4.4 °F /  -20.2 °C 979.9 in /  33179.4 hPa Calm     90 % 0.0 in /  0 mm
05:15 -2.8 °F /  -19.3 °C -4.2 °F /  -20.1 °C 979.9 in /  33179.4 hPa Calm     90 % 0.0 in /  0 mm
05:30 -2.6 °F /  -19.2 °C -4.3 °F /  -20.2 °C 979.6 in /  33169.3 hPa Calm     88 % 0.0 in /  0 mm
05:45 -2.3 °F /  -19.1 °C -4.3 °F /  -20.2 °C 979.6 in /  33169.3 hPa Calm     86 % 0.0 in /  0 mm
06:00 -2.1 °F /  -18.9 °C -4.2 °F /  -20.1 °C 979.6 in /  33169.3 hPa Calm     85 % 0.0 in /  0 mm
06:15 -1.9 °F /  -18.8 °C -4.3 °F /  -20.2 °C 979.2 in /  33155.7 hPa Calm     84 % 0.0 in /  0 mm
06:30 -1.8 °F /  -18.8 °C -4.2 °F /  -20.1 °C 979.2 in /  33155.7 hPa Calm     84 % 0.0 in /  0 mm
06:45 -1.8 °F /  -18.8 °C -4.0 °F /  -20 °C 978.9 in /  33145.6 hPa Calm     85 % 0.0 in /  0 mm
07:00 -1.8 °F /  -18.8 °C -4.1 °F /  -20.1 °C 978.9 in /  33145.6 hPa Calm     84 % 0.0 in /  0 mm
07:15 -1.7 °F /  -18.7 °C -4.1 °F /  -20.1 °C 978.9 in /  33145.6 hPa Calm     84 % 0.0 in /  0 mm
07:30 -1.7 °F /  -18.7 °C -4.1 °F /  -20.1 °C 978.6 in /  33135.4 hPa Calm     84 % 0.0 in /  0 mm
07:45 -1.8 °F /  -18.8 °C -4.1 °F /  -20.1 °C 978.6 in /  33135.4 hPa Calm     84 % 0.0 in /  0 mm
08:00 -1.8 °F /  -18.8 °C -4.2 °F /  -20.1 °C 978.6 in /  33135.4 hPa Calm     84 % 0.0 in /  0 mm
08:15 -1.9 °F /  -18.8 °C -4.2 °F /  -20.1 °C 978.6 in /  33135.4 hPa Calm     84 % 0.0 in /  0 mm
08:30 -1.9 °F /  -18.8 °C -4.1 °F /  -20.1 °C 978.2 in /  33121.9 hPa Calm     85 % 0.0 in /  0 mm
08:45 -2.1 °F /  -18.9 °C -4.2 °F /  -20.1 °C 978.2 in /  33121.9 hPa Calm     85 % 0.0 in /  0 mm
09:00 -2.2 °F /  -19 °C -4.2 °F /  -20.1 °C 978.2 in /  33121.9 hPa Calm     86 % 0.0 in /  0 mm
09:15 -2.2 °F /  -19 °C -4.2 °F /  -20.1 °C 978.2 in /  33121.9 hPa Calm     86 % 0.0 in /  0 mm
09:30 -2.2 °F /  -19 °C -4.1 °F /  -20.1 °C 978.2 in /  33121.9 hPa Calm     87 % 0.0 in /  0 mm
09:45 -2.2 °F /  -19 °C -4.1 °F /  -20.1 °C 978.2 in /  33121.9 hPa Calm     87 % 0.0 in /  0 mm
10:00 -2.2 °F /  -19 °C -4.1 °F /  -20.1 °C 978.2 in /  33121.9 hPa Calm     87 % 0.0 in /  0 mm
10:15 -2.2 °F /  -19 °C -4.0 °F /  -20 °C 978.2 in /  33121.9 hPa Calm     87 % 0.0 in /  0 mm
10:30 -2.1 °F /  -18.9 °C -4.1 °F /  -20.1 °C 978.2 in /  33121.9 hPa Calm     86 % 0.0 in /  0 mm
10:45 -2.1 °F /  -18.9 °C -4.1 °F /  -20.1 °C 978.2 in /  33121.9 hPa Calm     86 % 0.0 in /  0 mm
11:00 -2.1 °F /  -18.9 °C -3.9 °F /  -19.9 °C 977.9 in /  33111.7 hPa Calm     87 % 0.0 in /  0 mm
11:15 -2.2 °F /  -19 °C -3.9 °F /  -19.9 °C 977.9 in /  33111.7 hPa Calm     88 % 0.0 in /  0 mm
11:30 -2.2 °F /  -19 °C -3.9 °F /  -19.9 °C 977.9 in /  33111.7 hPa Calm     88 % 0.0 in /  0 mm
11:45 -2.3 °F /  -19.1 °C -4.0 °F /  -20 °C 977.9 in /  33111.7 hPa Calm     88 % 0.0 in /  0 mm
12:00 -2.3 °F /  -19.1 °C -4.0 °F /  -20 °C 977.9 in /  33111.7 hPa Calm     88 % 0.0 in /  0 mm
12:15 -2.3 °F /  -19.1 °C -4.2 °F /  -20.1 °C 977.9 in /  33111.7 hPa Calm     87 % 0.0 in /  0 mm
12:30 -2.3 °F /  -19.1 °C -4.2 °F /  -20.1 °C 977.9 in /  33111.7 hPa Calm     87 % 0.0 in /  0 mm
12:45 -2.3 °F /  -19.1 °C -4.2 °F /  -20.1 °C 977.5 in /  33098.2 hPa Calm     87 % 0.0 in /  0 mm
13:00 -2.3 °F /  -19.1 °C -4.1 °F /  -20.1 °C 977.9 in /  33111.7 hPa Calm     87 % 0.0 in /  0 mm
13:15 -2.3 °F /  -19.1 °C -4.2 °F /  -20.1 °C 977.5 in /  33098.2 hPa Calm     87 % 0.0 in /  0 mm
13:30 -2.5 °F /  -19.2 °C -4.1 °F /  -20.1 °C 977.9 in /  33111.7 hPa Calm     89 % 0.0 in /  0 mm
13:45 -2.4 °F /  -19.1 °C -4.2 °F /  -20.1 °C 977.9 in /  33111.7 hPa Calm     88 % 0.0 in /  0 mm
14:00 -2.5 °F /  -19.2 °C -4.1 °F /  -20.1 °C 977.9 in /  33111.7 hPa Calm     89 % 0.0 in /  0 mm
14:15 -2.5 °F /  -19.2 °C -3.9 °F /  -19.9 °C 977.9 in /  33111.7 hPa Calm     90 % 0.0 in /  0 mm
14:30 -2.6 °F /  -19.2 °C -4.0 °F /  -20 °C 977.9 in /  33111.7 hPa Calm     90 % 0.0 in /  0 mm
14:45 -2.6 °F /  -19.2 °C -3.9 °F /  -19.9 °C 977.9 in /  33111.7 hPa Calm     91 % 0.0 in /  0 mm
15:00 -2.6 °F /  -19.2 °C -3.7 °F /  -19.8 °C 977.9 in /  33111.7 hPa Calm     92 % 0.0 in /  0 mm
15:15 -2.3 °F /  -19.1 °C -3.7 °F /  -19.8 °C 977.9 in /  33111.7 hPa Calm     90 % 0.0 in /  0 mm
15:30 -2.0 °F /  -18.9 °C -3.6 °F /  -19.8 °C 978.2 in /  33121.9 hPa Calm     89 % 0.0 in /  0 mm
15:45 -1.8 °F /  -18.8 °C -3.6 °F /  -19.8 °C 978.6 in /  33135.4 hPa Calm     88 % 0.0 in /  0 mm
16:00 -1.7 °F /  -18.7 °C -3.6 °F /  -19.8 °C 978.6 in /  33135.4 hPa Calm     87 % 0.0 in /  0 mm
16:15 -1.7 °F /  -18.7 °C -3.5 °F /  -19.7 °C 979.2 in /  33155.7 hPa Calm     87 % 0.0 in /  0 mm
16:30 -1.7 °F /  -18.7 °C -3.7 °F /  -19.8 °C 979.2 in /  33155.7 hPa Calm     86 % 0.0 in /  0 mm
16:45 -1.7 °F /  -18.7 °C -3.7 °F /  -19.8 °C 979.2 in /  33155.7 hPa Calm     86 % 0.0 in /  0 mm
17:00 -1.7 °F /  -18.7 °C -3.8 °F /  -19.9 °C 979.2 in /  33155.7 hPa Calm     86 % 0.0 in /  0 mm
17:15 -1.8 °F /  -18.8 °C -3.8 °F /  -19.9 °C 979.6 in /  33169.3 hPa Calm     86 % 0.0 in /  0 mm
17:30 -1.8 °F /  -18.8 °C -3.9 °F /  -19.9 °C 979.6 in /  33169.3 hPa Calm     86 % 0.0 in /  0 mm
17:45 -1.8 °F /  -18.8 °C -3.9 °F /  -19.9 °C 979.9 in /  33179.4 hPa Calm     86 % 0.0 in /  0 mm
18:00 -1.8 °F /  -18.8 °C -3.9 °F /  -19.9 °C 979.9 in /  33179.4 hPa Calm     86 % 0.0 in /  0 mm
18:15 -1.8 °F /  -18.8 °C -3.9 °F /  -19.9 °C 979.9 in /  33179.4 hPa Calm     86 % 0.0 in /  0 mm
18:30 -1.8 °F /  -18.8 °C -3.9 °F /  -19.9 °C 979.9 in /  33179.4 hPa Calm     86 % 0.0 in /  0 mm
18:45 -1.8 °F /  -18.8 °C -3.9 °F /  -19.9 °C 979.9 in /  33179.4 hPa Calm     86 % 0.0 in /  0 mm
19:00 -1.8 °F /  -18.8 °C -3.8 °F /  -19.9 °C 979.9 in /  33179.4 hPa Calm     86 % 0.0 in /  0 mm
19:15 -1.8 °F /  -18.8 °C -3.8 °F /  -19.9 °C 979.9 in /  33179.4 hPa Calm     86 % 0.0 in /  0 mm
19:30 -1.8 °F /  -18.8 °C -3.8 °F /  -19.9 °C 980.2 in /  33189.6 hPa Calm     86 % 0.0 in /  0 mm
19:45 -1.8 °F /  -18.8 °C -3.9 °F /  -19.9 °C 980.2 in /  33189.6 hPa Calm     86 % 0.0 in /  0 mm
20:00 -1.8 °F /  -18.8 °C -3.7 °F /  -19.8 °C 980.2 in /  33189.6 hPa Calm     87 % 0.0 in /  0 mm
20:15 -1.8 °F /  -18.8 °C -3.7 °F /  -19.8 °C 980.2 in /  33189.6 hPa Calm     87 % 0.0 in /  0 mm
20:30 -1.8 °F /  -18.8 °C -3.7 °F /  -19.8 °C 980.2 in /  33189.6 hPa Calm     87 % 0.0 in /  0 mm
20:45 -1.8 °F /  -18.8 °C -3.7 °F /  -19.8 °C 979.9 in /  33179.4 hPa Calm     87 % 0.0 in /  0 mm
21:00 -1.8 °F /  -18.8 °C -3.9 °F /  -19.9 °C 980.2 in /  33189.6 hPa Calm     86 % 0.0 in /  0 mm
21:15 -1.8 °F /  -18.8 °C -3.8 °F /  -19.9 °C 980.2 in /  33189.6 hPa Calm     86 % 0.0 in /  0 mm
21:30 -1.8 °F /  -18.8 °C -3.7 °F /  -19.8 °C 980.2 in /  33189.6 hPa Calm     87 % 0.0 in /  0 mm
21:45 -1.8 °F /  -18.8 °C -3.9 °F /  -19.9 °C 980.2 in /  33189.6 hPa Calm     86 % 0.0 in /  0 mm
22:00 -1.9 °F /  -18.8 °C -3.8 °F /  -19.9 °C 980.6 in /  33203.1 hPa Calm     87 % 0.0 in /  0 mm
22:15 -1.9 °F /  -18.8 °C -3.8 °F /  -19.9 °C 980.6 in /  33203.1 hPa Calm     87 % 0.0 in /  0 mm
22:30 -1.9 °F /  -18.8 °C -3.8 °F /  -19.9 °C 980.6 in /  33203.1 hPa Calm     87 % 0.0 in /  0 mm
22:45 -1.9 °F /  -18.8 °C -3.8 °F /  -19.9 °C 980.6 in /  33203.1 hPa Calm     87 % 0.0 in /  0 mm
23:00 -1.9 °F /  -18.8 °C -3.8 °F /  -19.9 °C 980.6 in /  33203.1 hPa Calm     87 % 0.0 in /  0 mm
23:15 -1.9 °F /  -18.8 °C -3.8 °F /  -19.9 °C 980.6 in /  33203.1 hPa Calm     87 % 0.0 in /  0 mm
23:30 -1.9 °F /  -18.8 °C -3.8 °F /  -19.9 °C 980.6 in /  33203.1 hPa Calm     87 % 0.0 in /  0 mm
23:45 -1.8 °F /  -18.8 °C -3.7 °F /  -19.8 °C 980.9 in /  33213.3 hPa Calm     87 % 0.0 in /  0 mm
Esan sääasema
Terveisin Weather Underground - 2.75 mb

Alkuperäinen skripti  Jim McMurry - jmcmurry@mwt.net Sovitettu myös templatelle  Wim van der Kuil - Leuven-Template.eu

Laitteet joita käytämme:

Sääasema
Davis VP2

Sääasemaohjelma
Cumulus

Sääaseman tietokone
Asus EeePC

Palveluntarjoaja
Suncomet

Davis VP2

Cumulus

Asus EeePC

Suncomet